Flight Track Log - Related Links

Times and Time Zones

All times are in EDT time to prevent confusion due to time zone crossing. See the GJS3710 flight status page for this flight to view local times or setup timezone preferences in your user account.

Time Position Orientation Groundspeed Altitude Reporting Facility
EDT Latitude Longitude Course Direction KTS MPH feet Rate Location/Type
Fri 12:28:42 PM 39.8667 -75.2833 255° West 164 189 900  Level Philadelphia TRACON
Fri 12:29:54 PM 39.8500 -75.3667 255° West 245 282 3,000 2,182 Climbing Philadelphia TRACON
Fri 12:30:54 PM 39.8667 -75.4333 288° West 270 311 5,700 2,750 Climbing Philadelphia TRACON
Fri 12:31:54 PM 39.9500 -75.4667 343° North 280 322 8,500 2,667 Climbing Philadelphia TRACON
Fri 12:33:00 PM 40.0333 -75.4964 345° North 304 350 11,300 2,095 Climbing New York Center
Fri 12:34:00 PM 40.1114 -75.5261 344° North 318 366 12,900 1,100 Climbing New York Center
Fri 12:35:00 PM 40.2142 -75.5631 345° North 351 404 13,500 1,300 Climbing New York Center
Fri 12:36:00 PM 40.2972 -75.6747 314° West 386 444 15,500 1,750 Climbing New York Center
Fri 12:37:00 PM 40.3717 -75.7836 312° West 386 444 17,000 1,100 Climbing New York Center
Fri 12:38:00 PM 40.4419 -75.8978 309° West 396 456 17,700 1,050 Climbing New York Center
Fri 12:39:00 PM 40.4611 -76.0275 281° West 395 455 19,100 1,450 Climbing New York Center
Fri 12:40:00 PM 40.4861 -76.1714 283° West 395 455 20,600 1,450 Climbing New York Center
Fri 12:41:00 PM 40.5064 -76.3178 280° West 405 466 22,000 1,400 Climbing New York Center
Fri 12:42:00 PM 40.5306 -76.4644 282° West 410 472 23,400 1,150 Climbing New York Center
Fri 12:43:00 PM 40.5544 -76.6139 282° West 415 478 24,300 950 Climbing New York Center
Fri 12:44:00 PM 40.5678 -76.7681 277° West 420 483 25,300 950 Climbing New York Center
Fri 12:45:00 PM 40.5825 -76.9278 277° West 431 496 26,200 950 Climbing New York Center
Fri 12:46:00 PM 40.5969 -77.0850 277° West 431 496 27,200 1,050 Climbing New York Center
Fri 12:47:00 PM 40.6114 -77.2450 277° West 431 496 28,300 800 Climbing New York Center
Fri 12:48:00 PM 40.6233 -77.4019 276° West 436 502 28,800 700 Climbing New York Center
Fri 12:49:00 PM 40.6383 -77.5811 276° West 442 509 29,700 711 Climbing New York Center
Fri 12:50:32 PM 40.6547 -77.8133 275° West 456 525 30,600 592 Climbing Cleveland Center
Fri 12:51:32 PM 40.6772 -77.9739 281° West 456 525 31,200 850 Climbing Cleveland Center
Fri 12:52:32 PM 40.7017 -78.1344 281° West 456 525 32,300 900 Climbing Cleveland Center
Fri 12:53:32 PM 40.7217 -78.2928 280° West 451 519 33,000 750 Climbing Cleveland Center
Fri 12:54:32 PM 40.7436 -78.4483 281° West 446 513 33,800 1,250 Climbing Cleveland Center
Fri 12:55:32 PM 40.7631 -78.6011 280° West 441 507 35,500 1,050 Climbing Cleveland Center
Fri 12:56:32 PM 40.7842 -78.7514 281° West 431 496 35,900 500 Climbing Cleveland Center
Fri 12:57:32 PM 40.8031 -78.9017 279° West 426 490 36,500 600 Climbing Cleveland Center
Fri 12:58:32 PM 40.8283 -79.0519 283° West 426 490 37,100 600 Climbing Cleveland Center
Fri 12:59:32 PM 40.8469 -79.2025 279° West 426 490 37,700 450 Climbing Cleveland Center
Fri 01:00:32 PM 40.8672 -79.3531 280° West 426 490 38,000 150 Climbing Cleveland Center
Fri 01:01:32 PM 40.8856 -79.5064 279° West 426 490 38,000  Level Cleveland Center
Fri 01:02:31 PM 40.9036 -79.6572 279° West 426 490 38,000  Level Cleveland Center
Fri 01:03:32 PM 40.9233 -79.8083 280° West 426 490 38,000  Level Cleveland Center
Fri 01:04:32 PM 40.9411 -79.9619 279° West 426 490 38,000  Level Cleveland Center
Fri 01:05:32 PM 40.9606 -80.1131 280° West 426 490 38,000  Level Cleveland Center
Fri 01:06:31 PM 40.9797 -80.2697 279° West 426 490 38,000  Level Cleveland Center
Fri 01:07:32 PM 40.9967 -80.4208 278° West 426 490 38,000  Level Cleveland Center
Fri 01:08:32 PM 41.0178 -80.5914 279° West 426 490 38,000  Level Cleveland Center
Fri 01:09:32 PM 41.0344 -80.7428 278° West 426 490 38,000  Level Cleveland Center
Fri 01:10:32 PM 41.0506 -80.8942 278° West 426 490 38,000  Level Cleveland Center
Fri 01:11:32 PM 41.0606 -81.0486 275° West 426 490 38,000  Level Cleveland Center
Fri 01:12:32 PM 41.0661 -81.2000 273° West 426 490 38,000  Level Cleveland Center
Fri 01:13:31 PM 41.0736 -81.3544 274° West 421 484 38,000  Level Cleveland Center
Fri 01:14:32 PM 41.0703 -81.5058 268° West 421 484 38,000  Level Cleveland Center
Fri 01:15:32 PM 41.0689 -81.6600 269° West 421 484 38,000  Level Cleveland Center
Fri 01:16:32 PM 41.0675 -81.8006 269° West 421 484 38,000  Level Cleveland Center
Fri 01:17:32 PM 41.0658 -81.9547 269° West 421 484 38,000  Level Cleveland Center
Fri 01:18:32 PM 41.0639 -82.1089 269° West 421 484 38,000  Level Cleveland Center
Fri 01:19:32 PM 41.0636 -82.2658 270° West 421 484 38,000  Level Cleveland Center
Fri 01:20:32 PM 41.0589 -82.4364 268° West 421 484 38,000  Level Cleveland Center
Fri 01:21:32 PM 41.0564 -82.5933 269° West 421 484 38,000  Level Cleveland Center
Fri 01:22:32 PM 41.0533 -82.7503 269° West 421 484 38,000  Level Cleveland Center
Fri 01:23:32 PM 41.0503 -82.9042 269° West 421 484 38,000  Level Cleveland Center
Fri 01:24:32 PM 41.0472 -83.0611 269° West 427 491 38,000  Level Cleveland Center
Fri 01:25:32 PM 41.0436 -83.2206 268° West 427 491 38,000  Level Cleveland Center
Fri 01:26:32 PM 41.0397 -83.3747 268° West 427 491 38,000  Level Cleveland Center
Fri 01:27:32 PM 41.0358 -83.5342 268° West 427 491 38,000  Level Cleveland Center
Fri 01:28:32 PM 41.0297 -83.6908 267° West 432 497 38,000  Level Cleveland Center
Fri 01:29:32 PM 41.0256 -83.8339 268° West 432 497 38,000  Level Cleveland Center
Fri 01:30:32 PM 41.0253 -83.9881 270° West 432 497 38,000  Level Cleveland Center
Fri 01:31:32 PM 41.0186 -84.1417 267° West 426 490 38,000  Level Cleveland Center
Fri 01:32:32 PM 41.0133 -84.3039 268° West 426 490 38,000 -557 Level Cleveland Center
Fri 01:33:52 PM 41.0703 -84.5097 290° West 430 495 36,700 -972 Descending Chicago Center
Fri 01:34:54 PM 41.0931 -84.6611 281° West 417 480 35,700 -968 Descending Chicago Center
Fri 01:35:56 PM 41.1128 -84.8147 280° West 420 483 34,700 -968 Descending Chicago Center
Fri 01:36:58 PM 41.1361 -84.9706 281° West 428 493 33,700 -968 Descending Chicago Center
Fri 01:38:00 PM 41.1581 -85.1292 280° West 433 498 32,700 -1,016 Descending Chicago Center
Fri 01:39:02 PM 41.1814 -85.2936 281° West 444 511 31,600 -1,113 Descending Chicago Center
Fri 01:40:04 PM 41.2108 -85.5008 281° West 466 536 30,400 -1,403 Descending Chicago Center
Fri 01:41:06 PM 41.2336 -85.6703 280° West 467 537 28,700 -1,984 Descending Chicago Center
Fri 01:42:08 PM 41.2544 -85.8283 280° West 439 505 26,300 -1,790 Descending Chicago Center
Fri 01:43:10 PM 41.2753 -85.9889 280° West 439 505 25,000 -629 Descending Chicago Center
Fri 01:44:12 PM 41.3111 -86.1497 287° West 449 517 25,000 48 Level Chicago Center
Fri 01:45:15 PM 41.3519 -86.3111 289° West 457 526 25,100 -432 Climbing Chicago Center
Fri 01:46:17 PM 41.3917 -86.4700 288° West 452 520 24,100 -1,984 Descending Chicago Center
Fri 01:47:19 PM 41.4372 -86.6553 288° West 439 505 21,000 -2,613 Descending Chicago Center
Fri 01:48:21 PM 41.4719 -86.7944 288° West 430 495 18,700 -2,032 Descending Chicago Center
Fri 01:49:23 PM 41.5086 -86.9431 288° West 425 489 16,800 -2,565 Descending Chicago Center
Fri 01:50:25 PM 41.5503 -87.1150 288° West 410 472 13,400 -2,371 Descending Chicago Center
Fri 01:51:27 PM 41.5856 -87.2500 289° West 391 450 11,900 -677 Descending Chicago Center
Fri 01:52:29 PM 41.6478 -87.3503 310° West 356 410 12,000 -194 Climbing Chicago Center
Fri 01:53:31 PM 41.7094 -87.4519 309° West 354 407 11,500 -720 Descending Chicago Center
Fri 01:54:34 PM 41.7600 -87.5650 301° West 361 415 10,500 -774 Descending Chicago Center
Fri 01:55:35 PM 41.8172 -87.7042 299° West 360 414 9,900 -726 Descending Chicago Center
Fri 01:56:38 PM 41.8697 -87.7817 312° West 294 338 9,000 -1,248 Descending Chicago Center
Fri 01:57:40 PM 41.8853 -87.8822 282° West 286 329 7,300 -1,016 Descending Chicago Center
Fri 01:58:42 PM 41.8842 -87.9839 269° West 279 321 6,900 -810 Descending Chicago Center
Fri 01:59:46 PM 41.8833 -88.1000 269° West 277 319 5,600 -919 Descending Chicago TRACON
Fri 02:00:46 PM 41.8847 -88.2003 271° West 267 307 5,000 -295 Descending Chicago Center
Fri 02:01:48 PM 41.9328 -88.2258 338° Northwest 206 237 5,000 -435 Level Chicago Center
Fri 02:02:50 PM 41.9647 -88.1828 45° Northeast 184 212 4,100 -814 Descending Chicago Center
Fri 02:03:46 PM 41.9667 -88.1167 88° East 180 207 3,400 -931 Descending Chicago TRACON
Fri 02:04:46 PM 41.9667 -88.0500 90° East 175 201 2,300 -900 Descending Chicago TRACON
Fri 02:05:46 PM 41.9667 -88.0000 90° East 133 153 1,600 -700 Descending Chicago TRACON
Fri 02:06:46 PM 41.9667 -87.9500 90° East 133 153 900 -700 Descending Chicago TRACON
Fri 02:08:00 PM 41.9667 -87.9000 83° East  Level FlightAware Approximate
Fri 02:15:00 PM 41.9817 -87.9067 83° East  Level Estimated

Login

Don't have an account? Register now (free) for customized features, flight alerts, and more!